Blue Oak Ranch Reserve, California Weather observations

Data are for 10 minute period ending at time listed.
 Day   Time   Solar   Ave.   Ave.  Ave.  Vector  Max.   Baro.   Total    
  of    of     Rad.   Air    Rel.  Wind   Wind   Wind  Press.  Precip.   
Year   Day            Temp.  Hum.  Speed  Dir.   Gust                    
2014   (PST)  Kw/m2    F      %     mph   deg.    mph    mb.     in.     
-------------------------------------------------------------------------
 303   10:00   0.49   72.2    36    3.2   134     6.1   947.3    0.00 
 303   10:10   0.38   73.8    34    4.0   201     6.6   947.5    0.00 
 303   10:20   0.32   73.9    34    2.9   170     6.1   947.7    0.00 
 303   10:30   0.26   72.8    34    3.8   155     6.9   947.7    0.00 
 303   10:40   0.34   72.6    34    4.1   201     7.7   947.7    0.00 
 303   10:50   0.35   73.4    34    2.1   179     4.9   947.6    0.00 
 303   11:00   0.50   74.8    31    3.1   150     8.0   947.6    0.00 
 303   11:10   0.72   75.5    30    4.2   138     8.1   947.5    0.00 
 303   11:20   0.55   76.2    25    4.3   179     9.2   947.4    0.00 
 303   11:30   0.48   76.2    26    4.9   252     9.9   947.2    0.00 
 303   11:40   0.53   75.8    27    6.9   256    10.4   947.1    0.00 
 303   11:50   0.55   76.7    26    4.9   245     8.3   947.1    0.00 
 303   12:00   0.47   76.0    28    6.0   274    11.2   947.0    0.00 
 303   12:10   0.62   75.7    27    5.6   265    11.5   946.9    0.00 
 303   12:20   0.44   75.4    25    5.0   257    11.2   946.6    0.00 
 303   12:30   0.22   74.5    26    5.4   262    10.2   946.6    0.00 
 303   12:40   0.32   74.5    27    4.4   245     7.3   946.5    0.00 
 303   12:50   0.26   73.6    29    5.4   264     8.9   946.4    0.00 
 303   13:00   0.31   73.8    29    4.4   263     6.6   946.4    0.00 
 303   13:10   0.24   73.9    28    4.0   257     6.9   946.3    0.00 
 303   13:20   0.20   73.3    29    5.4   262    11.4   946.3    0.00 
 303   13:30   0.23   72.6    30    4.9   272     8.0   946.2    0.00 
 303   13:40   0.20   72.4    31    4.4   270     8.0   946.2    0.00 
 303   13:50   0.17   72.2    31    4.4   256     6.9   946.1    0.00 
 303   14:00   0.15   71.8    31    5.6   270     8.8   946.1    0.00 
 303   14:10   0.17   71.2    32    7.2   262    11.5   946.1    0.00 
 303   14:20   0.21   70.5    35    8.2   261    11.5   946.2    0.00 
 303   14:30   0.16   69.5    33    5.7   243    10.7   946.3    0.00 
 303   14:40   0.17   69.2    36    5.4   258     9.7   946.4    0.00 
 303   14:50   0.18   68.9    39    5.6   252     9.9   946.5    0.00 
 303   15:00   0.15   67.6    40    7.8   288    12.2   946.5    0.00 
 303   15:10   0.17   67.0    41    4.1   290     6.7   946.4    0.00 
 303   15:20   0.20   67.4    42    4.1   285     7.6   946.3    0.00 
 303   15:30   0.14   67.5    41    3.5   322     5.8   946.1    0.00 
 303   15:40   0.11   67.6    40    1.8    75     3.5   946.1    0.00 
 303   15:50   0.10   67.7    39    1.2    88     3.1   945.8    0.00 
 303   16:00   0.09   67.6    40    4.0   263     6.3   945.7    0.00 
 303   16:10   0.07   66.9    40    3.8   250     6.0   945.6    0.00 
 303   16:20   0.05   65.9    41    4.5   252     7.8   945.7    0.00 
 303   16:30   0.03   64.7    43    3.5   261     7.3   945.7    0.00 
 303   16:40   0.04   64.2    43    1.5   327     3.6   945.5    0.00 
 303   16:50   0.04   63.9    44    2.7    54     4.3   945.1    0.00 
 303   17:00   0.03   63.6    45    1.6    22     3.5   945.0    0.00 
 303   17:10   0.02   62.6    47    2.0   283     2.9   945.1    0.00 
 303   17:20   0.01   61.8    47    1.6    20     3.3   944.9    0.00 
 303   17:30   0.00   61.2    48    1.8    69     3.0   944.7    0.00 
 303   17:40   0.00   60.3    50    1.6   326     2.9   944.8    0.00 
 303   17:50   0.00   59.5    50    0.9    75     2.2   945.1    0.00 
 303   18:00   0.00   58.8    51    1.2    81     2.3   945.1    0.00 
 303   18:10   0.00   58.1    53    1.0   336     1.6   945.1    0.00 
 303   18:20   0.00   57.5    54    0.9   292     1.8   945.3    0.00 
 303   18:30   0.00   57.0    56    1.7   298     3.6   945.3    0.00 
 303   18:40   0.00   56.8    55    1.6    83     2.5   945.3    0.00 
 303   18:50   0.00   56.3    56    2.0    60     5.1   945.2    0.00 
 303   19:00   0.00   55.2    59    2.5   313     5.1   945.3    0.00 
 303   19:10   0.00   55.4    57    2.8    72     4.7   945.2    0.00 
 303   19:20   0.00   55.7    56    2.5    40     6.5   945.1    0.00 
 303   19:30   0.00   55.2    58    2.6   301     6.6   945.4    0.00 
 303   19:40   0.00   56.6    56    2.4    83     4.2   945.3    0.00 
 303   19:50   0.00   56.7    58    1.9   325     3.8   945.3    0.00 
 303   20:00   0.00   56.3    58    1.7   271     3.7   945.4    0.00 
 303   20:10   0.00   56.5    58    1.7    79     2.7   945.1    0.00 
 303   20:20   0.00   56.1    58    1.2   308     3.9   945.0    0.00 
 303   20:30   0.00   55.7    60    2.6   254     4.0   945.1    0.00 
 303   20:40   0.00   55.7    60    1.8    90     5.6   945.2    0.00 
 303   20:50   0.00   56.0    60    2.7    65     5.2   945.2    0.00 
 303   21:00   0.00   55.0    60    1.5    88     3.4   945.2    0.00 
 303   21:10   0.00   54.8    63    0.5   324     1.9   945.2    0.00 
 303   21:20   0.00   53.8    65    3.0   298     4.4   945.4    0.00 
 303   21:30   0.00   53.0    65    2.1    51     3.2   945.5    0.00 
 303   21:40   0.00   52.3    66    1.9    67     3.1   945.6    0.00 
 303   21:50   0.00   51.2    69    1.3    63     3.2   945.5    0.00 
 303   22:00   0.00   50.5    72    1.2   310     2.2   945.8    0.00 
 303   22:10   0.00   50.6    72    1.4    65     2.9   945.8    0.00 
 303   22:20   0.00   50.2    74    0.5   353     1.3   945.9    0.00 
 303   22:30   0.00   50.2    76    0.6     7     1.6   946.0    0.00 
 303   22:40   0.00   50.0    76    1.1   307     2.0   945.9    0.00 
 303   22:50   0.00   49.8    78    0.7    73     2.3   945.8    0.00 
 303   23:00   0.00   50.0    80    1.1    57     2.6   946.0    0.00 
 303   23:10   0.00   50.3    81    3.1    71     6.6   945.9    0.00 
 303   23:20   0.00   51.3    82    2.2    96     5.0   945.7    0.00 
 303   23:30   0.00   51.9    82    3.7   214     8.1   946.0    0.00 
 303   23:40   0.00   52.4    86    2.8   154     6.9   946.2    0.00 
 303   23:50   0.00   52.6    87    1.9    98     5.0   946.1    0.00 
 304    0:00   0.00   52.8    88    1.7   127     3.4   945.9    0.00 
 304    0:10   0.00   53.2    88    2.5   152     6.3   946.0    0.00 
 304    0:20   0.00   53.6    88    2.9   168     6.7   946.1    0.00 
 304    0:30   0.00   53.7    88    2.3   158     4.3   946.1    0.00 
 304    0:40   0.00   53.8    88    1.6   159     3.9   946.0    0.00 
 304    0:50   0.00   54.0    88    1.5   210     4.2   946.0    0.00 
 304    1:00   0.00   54.1    89    1.8   156     4.2   945.9    0.00 
 304    1:10   0.00   54.0    89    2.0   140     4.5   945.7    0.00 
 304    1:20   0.00   54.1    89    0.5   151     1.6   945.6    0.00 
 304    1:30   0.00   54.3    89    1.2   143     2.8   945.6    0.00 
 304    1:40   0.00   54.5    89    0.7   161     2.3   945.5    0.00 
 304    1:50   0.00   54.6    89    1.6   162     4.1   945.6    0.00 
 304    2:00   0.00   54.8    89    2.1   165     5.8   945.4    0.00 
 304    2:10   0.00   54.8    89    1.7   170     4.3   945.3    0.00 
 304    2:20   0.00   54.9    89    0.9   171     2.9   945.3    0.00 
 304    2:30   0.00   54.9    89    1.5   206     3.9   945.4    0.00 
 304    2:40   0.00   54.9    90    2.1   160     4.8   945.4    0.00 
 304    2:50   0.00   54.9    90    2.4   123     4.5   945.1    0.00 
 304    3:00   0.00   55.0    89    3.0   138     6.6   945.1    0.00 
 304    3:10   0.00   55.2    88    1.8   146     5.6   945.0    0.00 
 304    3:20   0.00   55.3    87    2.3   194     3.7   945.0    0.00 
 304    3:30   0.00   55.1    87    3.9   161     6.8   944.9    0.00 
 304    3:40   0.00   54.9    88    3.1   128     9.1   944.8    0.00 
 304    3:50   0.00   54.8    88    2.2    86     5.6   944.8    0.00 
 304    4:00   0.00   54.7    87    2.4   106     4.9   944.6    0.00 
 304    4:10   0.00   54.7    86    3.5   108    10.0   944.4    0.00 
 304    4:20   0.00   54.7    85    2.4    76     6.4   944.4    0.00 
 304    4:30   0.00   54.7    85    2.9   102     8.7   944.3    0.00 
 304    4:40   0.00   54.7    84    3.9    96     9.2   944.2    0.00 
 304    4:50   0.00   54.7    83    3.6   106     8.2   944.0    0.00 
 304    5:00   0.00   54.9    82    3.2   120     7.5   944.0    0.00 
 304    5:10   0.00   54.9    82    5.4   129    11.1   944.1    0.00 
 304    5:20   0.00   54.6    82    4.1   100     9.1   943.8    0.00 
 304    5:30   0.00   54.6    82    3.7   109     8.7   943.7    0.00 
 304    5:40   0.00   54.4    82    2.3    96     6.8   943.7    0.00 
 304    5:50   0.00   53.9    84    2.4   190     5.6   943.9    0.00 
 304    6:00   0.00   53.6    86    3.2   266     6.1   944.3    0.00 
 304    6:10   0.00   53.4    86    1.7   318     4.8   944.5    0.00 
 304    6:20   0.00   53.8    86    1.6    45     3.1   944.5    0.00 
 304    6:30   0.01   54.0    85    1.9    71     4.7   944.5    0.00 
 304    6:40   0.01   54.4    85    1.6   111     4.8   944.5    0.00 
 304    6:50   0.01   54.6    85    1.8   146     4.2   944.5    0.00 
 304    7:00   0.01   54.6    85    1.9   145     5.6   944.6    0.00 
 304    7:10   0.04   54.6    86    2.5   136     5.8   944.6    0.00 
 304    7:20   0.04   54.6    88    3.2   169     5.8   944.6    0.00 
 304    7:30   0.04   54.3    90    3.2   148     8.4   944.7    0.00 
 304    7:40   0.07   54.4    89    4.5   152     9.2   944.6    0.00 
 304    7:50   0.07   54.6    88    6.0   140    11.8   944.6    0.00 
 304    8:00   0.07   54.9    87    5.8   136    14.6   944.5    0.00 
 304    8:10   0.07   55.1    86    6.6   144    13.4   944.5    0.00 
 304    8:20   0.06   55.0    87    6.9   147    13.4   944.6    0.00 
 304    8:30   0.06   54.8    88    5.6   153    11.7   944.8    0.00 
 304    8:40   0.04   54.7    89    6.6   156    12.6   945.0    0.00 
 304    8:50   0.07   54.7    89    5.3   157    11.2   945.0    0.00 
 304    9:00   0.05   54.9    88    4.9   162    11.2   944.9    0.00 
 304    9:10   0.06   55.0    88    4.9   162    11.2   944.9    0.00 
 304    9:20   0.05   54.9    88    5.2   159    10.4   944.9    0.00 
 304    9:30   0.04   54.9    88    4.3   151     9.2   944.8    0.00 
 304    9:40   0.04   54.9    88    4.1   138     8.6   944.8    0.00 
 304    9:50   0.07   55.1    87    4.4   145     7.7   944.7    0.00 

Return to Blue Oak Ranch Reserve graphs page.


Western Regional Climate Center,wrcc@dri.edu